Time;durP1;ratioP1;P1;durP2;ratioP2;P2;SDS_P1;SDS_P2;PMS_P1;PMS_P2;Temp;Humidity;BMP_temperature;BMP_pressure;BME280_temperature;BME280_humidity;BME280_pressure;Samples;Min_cycle;Max_cycle;Signal;HPM_P1;HPM_P2
2022/04/17 00:01:34;;;;;;;6.30;5.05;;;5.80;99.90;;;;;;5056034;28;20033;-72
2022/04/17 00:03:59;;;;;;;6.32;5.30;;;5.80;99.90;;;;;;5052923;28;20044;-73
2022/04/17 00:06:25;;;;;;;7.20;5.50;;;5.80;99.90;;;;;;5053205;28;20041;-71
2022/04/17 00:08:50;;;;;;;9.00;5.70;;;5.80;99.90;;;;;;5049771;28;20051;-72
2022/04/17 00:11:16;;;;;;;7.93;5.35;;;5.80;99.90;;;;;;5049923;28;20133;-72
2022/04/17 00:13:45;;;;;;;7.25;5.38;;;5.70;99.90;;;;;;5050507;28;20079;-71
2022/04/17 00:16:11;;;;;;;6.88;5.35;;;5.70;99.90;;;;;;5048873;28;20087;-70
2022/04/17 00:18:37;;;;;;;7.55;5.35;;;5.70;99.90;;;;;;5048773;28;20041;-72
2022/04/17 00:21:04;;;;;;;7.20;5.60;;;5.70;99.90;;;;;;5050153;28;20051;-71
2022/04/17 00:23:29;;;;;;;7.93;5.47;;;5.70;99.90;;;;;;5049975;28;20061;-71
2022/04/17 00:25:55;;;;;;;8.73;5.38;;;5.70;99.90;;;;;;5052303;28;20068;-71
2022/04/17 00:28:21;;;;;;;7.15;5.30;;;5.60;99.90;;;;;;5050853;28;20041;-72
2022/04/17 00:30:48;;;;;;;6.63;5.22;;;5.60;99.90;;;;;;5049153;28;20423;-72
2022/04/17 00:33:14;;;;;;;7.97;5.72;;;5.60;99.90;;;;;;5053129;28;20032;-71
2022/04/17 00:35:41;;;;;;;8.02;5.88;;;5.60;99.90;;;;;;5048965;28;20036;-71
2022/04/17 00:38:06;;;;;;;12.23;6.35;;;5.60;99.90;;;;;;5046369;28;20049;-71
2022/04/17 00:40:32;;;;;;;7.13;5.63;;;5.50;99.90;;;;;;5049390;28;20495;-72
2022/04/17 00:42:59;;;;;;;7.72;5.82;;;5.50;99.90;;;;;;5049142;28;20403;-72
2022/04/17 00:45:25;;;;;;;7.95;5.90;;;5.50;99.90;;;;;;5051186;28;20058;-72
2022/04/17 00:47:51;;;;;;;8.25;6.45;;;5.40;99.90;;;;;;5051400;28;20044;-72
2022/04/17 00:50:18;;;;;;;11.38;6.38;;;5.40;99.90;;;;;;5047374;28;20423;-72
2022/04/17 00:52:45;;;;;;;10.77;6.88;;;5.30;99.90;;;;;;5047210;28;20048;-72
2022/04/17 00:55:12;;;;;;;12.23;6.38;;;5.40;99.90;;;;;;5047375;28;20119;-72
2022/04/17 00:57:40;;;;;;;8.27;6.28;;;5.30;99.90;;;;;;5047697;28;20037;-72
2022/04/17 01:00:06;;;;;;;8.15;6.00;;;5.30;99.90;;;;;;5039283;28;20041;-72
2022/04/17 01:02:31;;;;;;;10.95;6.93;;;5.30;99.90;;;;;;5066529;28;20033;-72
2022/04/17 01:04:57;;;;;;;9.57;6.43;;;5.30;99.90;;;;;;5042624;28;20678;-72
2022/04/17 01:07:23;;;;;;;10.93;6.30;;;5.40;99.90;;;;;;5066851;28;20517;-72
2022/04/17 01:09:53;;;;;;;8.88;6.43;;;5.40;99.90;;;;;;5047454;28;20041;-72
2022/04/17 01:12:19;;;;;;;10.48;6.80;;;5.40;99.90;;;;;;5048788;28;20048;-72
2022/04/17 01:14:45;;;;;;;8.35;6.60;;;5.30;99.90;;;;;;5063383;28;20041;-72
2022/04/17 01:17:12;;;;;;;9.93;6.40;;;5.30;99.90;;;;;;5047250;28;20135;-72
2022/04/17 01:19:39;;;;;;;7.95;6.72;;;5.30;99.90;;;;;;5050110;28;20293;-72
2022/04/17 01:22:06;;;;;;;10.02;6.40;;;5.20;99.90;;;;;;5047072;28;20033;-72
2022/04/17 01:27:17;;;;;;;9.13;7.13;;;5.20;99.90;;;;;;5048360;28;20411;-72
2022/04/17 01:29:43;;;;;;;11.07;7.15;;;5.10;99.90;;;;;;5048729;28;20660;-72
2022/04/17 01:32:10;;;;;;;8.95;6.93;;;5.10;99.90;;;;;;5049688;28;20098;-72
2022/04/17 01:34:37;;;;;;;7.68;6.80;;;5.10;99.90;;;;;;5063734;28;20846;-72
2022/04/17 01:37:03;;;;;;;10.75;7.57;;;5.00;99.90;;;;;;5047248;28;20418;-72
2022/04/17 01:39:30;;;;;;;9.07;7.30;;;5.00;99.90;;;;;;5048607;28;20041;-72
2022/04/17 01:41:56;;;;;;;9.18;6.60;;;4.90;99.90;;;;;;5047617;28;20487;-72
2022/04/17 01:44:25;;;;;;;10.10;7.13;;;4.90;99.90;;;;;;5047514;28;20495;-72
2022/04/17 01:46:51;;;;;;;8.77;7.30;;;4.90;99.90;;;;;;5049141;28;20090;-72
2022/04/17 01:49:18;;;;;;;7.57;6.45;;;4.90;99.90;;;;;;5047346;28;20395;-72
2022/04/17 01:51:46;;;;;;;10.02;7.13;;;4.90;99.90;;;;;;5048516;28;21322;-72
2022/04/17 01:54:16;;;;;;;9.05;6.53;;;4.90;99.90;;;;;;5045532;28;20067;-72
2022/04/17 01:56:43;;;;;;;9.45;7.07;;;4.90;99.90;;;;;;5050121;28;20549;-72
2022/04/17 01:59:09;;;;;;;8.75;7.10;;;4.90;99.90;;;;;;5049288;28;20511;-72
2022/04/17 02:01:36;;;;;;;8.55;6.93;;;4.90;99.90;;;;;;5045802;28;20744;-72
2022/04/17 02:04:04;;;;;;;10.00;7.30;;;4.90;99.90;;;;;;5049001;28;20060;-72
2022/04/17 02:06:30;;;;;;;9.07;7.03;;;4.90;99.90;;;;;;5046804;28;20506;-72
2022/04/17 02:08:56;;;;;;;8.65;6.90;;;4.80;99.90;;;;;;5050743;28;20033;-72
2022/04/17 02:11:25;;;;;;;10.65;7.45;;;4.80;99.90;;;;;;5048133;28;20099;-72
2022/04/17 02:13:50;;;;;;;10.18;7.32;;;4.80;99.90;;;;;;5047732;28;20076;-72
2022/04/17 02:16:20;;;;;;;9.25;7.22;;;4.80;99.90;;;;;;5051378;28;20665;-72
2022/04/17 02:18:47;;;;;;;11.40;7.57;;;4.80;99.90;;;;;;5074735;28;20048;-72
2022/04/17 02:21:14;;;;;;;9.68;7.18;;;4.80;99.90;;;;;;5047978;28;20771;-72
2022/04/17 02:23:43;;;;;;;10.85;7.07;;;4.70;99.90;;;;;;5047023;28;20506;-72
2022/04/17 02:26:11;;;;;;;10.60;7.47;;;4.70;99.90;;;;;;5047109;28;20033;-72
2022/04/17 02:28:40;;;;;;;9.82;7.70;;;4.70;99.90;;;;;;5047719;28;20085;-72
2022/04/17 02:31:06;;;;;;;10.20;7.40;;;4.70;99.90;;;;;;5047346;28;20039;-72
2022/04/17 02:33:32;;;;;;;11.48;7.40;;;4.70;99.90;;;;;;5046183;28;20055;-72
2022/04/17 02:35:58;;;;;;;11.45;7.60;;;4.60;99.90;;;;;;5047825;28;20040;-72
2022/04/17 02:38:25;;;;;;;9.93;7.90;;;4.60;99.90;;;;;;5051954;28;20170;-72
2022/04/17 02:40:51;;;;;;;9.27;7.50;;;4.60;99.90;;;;;;5050885;28;20509;-72
2022/04/17 02:43:17;;;;;;;11.07;7.63;;;4.50;99.90;;;;;;5015718;28;20508;-72
2022/04/17 02:45:43;;;;;;;9.73;7.68;;;4.50;99.90;;;;;;5051417;28;20120;-73
2022/04/17 02:48:09;;;;;;;8.38;7.20;;;4.60;99.90;;;;;;5032820;28;20400;-72
2022/04/17 02:50:34;;;;;;;10.13;7.47;;;4.50;99.90;;;;;;5050286;28;20044;-72
2022/04/17 02:53:00;;;;;;;12.45;7.90;;;4.50;99.90;;;;;;5051196;28;20055;-73
2022/04/17 02:55:26;;;;;;;10.95;7.70;;;4.50;99.90;;;;;;5051085;28;20609;-73
2022/04/17 02:57:52;;;;;;;10.48;7.60;;;4.40;99.90;;;;;;5051771;28;20049;-72
2022/04/17 03:00:18;;;;;;;11.80;8.13;;;4.40;99.90;;;;;;5031284;28;20044;-72
2022/04/17 03:05:36;;;;;;;8.63;7.32;;;4.30;99.90;;;;;;5046370;28;20371;-72
2022/04/17 03:08:08;;;;;;;11.00;7.90;;;4.30;99.90;;;;;;5048587;28;20111;-72
2022/04/17 03:10:35;;;;;;;11.65;8.35;;;4.20;99.90;;;;;;5044515;28;20040;-72
2022/04/17 03:13:01;;;;;;;9.93;7.93;;;4.20;99.90;;;;;;5065413;28;20044;-72
2022/04/17 03:15:27;;;;;;;13.90;8.13;;;4.20;99.90;;;;;;5046490;28;20483;-72
2022/04/17 03:17:52;;;;;;;11.50;8.25;;;4.20;99.90;;;;;;5045228;28;20044;-72
2022/04/17 03:20:19;;;;;;;12.23;8.35;;;4.20;99.90;;;;;;5046839;28;20100;-72
2022/04/17 03:22:44;;;;;;;11.30;8.25;;;4.20;99.90;;;;;;5048620;28;20537;-72
2022/04/17 03:25:10;;;;;;;11.18;8.40;;;4.10;99.90;;;;;;5048637;28;20041;-72
2022/04/17 03:27:36;;;;;;;12.40;8.07;;;4.10;99.90;;;;;;5046395;28;20037;-72
2022/04/17 03:30:05;;;;;;;10.05;8.18;;;4.10;99.90;;;;;;5046236;28;20051;-72
2022/04/17 03:32:34;;;;;;;11.63;8.45;;;4.10;99.90;;;;;;5049194;28;20082;-72
2022/04/17 03:34:59;;;;;;;11.18;9.00;;;4.10;99.90;;;;;;5048089;28;20037;-72
2022/04/17 03:37:25;;;;;;;9.40;7.85;;;4.10;99.90;;;;;;5050957;28;20060;-72
2022/04/17 03:39:51;;;;;;;11.98;8.57;;;4.00;99.90;;;;;;5065774;28;20798;-72
2022/04/17 03:42:17;;;;;;;12.85;8.48;;;4.00;99.90;;;;;;5050751;28;20514;-72
2022/04/17 03:44:43;;;;;;;10.50;7.97;;;3.90;99.90;;;;;;5050968;28;20033;-72
2022/04/17 03:47:08;;;;;;;10.98;8.27;;;4.00;99.90;;;;;;5049379;28;20095;-72
2022/04/17 03:49:34;;;;;;;11.65;8.48;;;3.90;99.90;;;;;;5049345;28;20041;-72
2022/04/17 03:52:00;;;;;;;11.90;8.38;;;4.00;99.90;;;;;;5052817;28;20072;-72
2022/04/17 03:54:26;;;;;;;11.77;8.82;;;3.90;99.90;;;;;;5050599;28;20079;-72
2022/04/17 03:56:52;;;;;;;11.18;9.25;;;3.90;99.90;;;;;;5048910;28;20384;-72
2022/04/17 03:59:18;;;;;;;13.07;8.98;;;3.80;99.90;;;;;;5051452;28;20098;-72
2022/04/17 04:01:46;;;;;;;12.02;8.70;;;3.80;99.90;;;;;;5050545;28;20033;-72
2022/04/17 04:04:12;;;;;;;11.60;8.93;;;3.70;99.90;;;;;;5050847;28;20433;-72
2022/04/17 04:06:38;;;;;;;10.88;8.63;;;3.70;99.90;;;;;;5048826;28;20463;-72
2022/04/17 04:09:04;;;;;;;14.27;8.85;;;3.70;99.90;;;;;;5050024;28;20068;-72
2022/04/17 04:11:29;;;;;;;16.63;8.95;;;3.70;99.90;;;;;;5048989;28;20044;-72
2022/04/17 04:13:55;;;;;;;11.93;8.75;;;3.70;99.90;;;;;;5050527;28;20437;-72
2022/04/17 04:16:21;;;;;;;12.93;8.98;;;3.70;99.90;;;;;;5048537;28;20040;-72
2022/04/17 04:18:46;;;;;;;14.25;9.70;;;3.70;99.90;;;;;;5050282;28;20080;-72
2022/04/17 04:21:12;;;;;;;14.93;9.93;;;3.70;99.90;;;;;;5050038;28;20058;-71
2022/04/17 04:23:38;;;;;;;15.75;9.52;;;3.70;99.90;;;;;;5048544;28;20127;-71
2022/04/17 04:26:04;;;;;;;13.30;9.27;;;3.60;99.90;;;;;;5049858;28;20120;-71
2022/04/17 04:28:36;;;;;;;11.15;9.23;;;3.60;99.90;;;;;;5068872;28;20561;-71
2022/04/17 04:31:06;;;;;;;15.05;9.27;;;3.60;99.90;;;;;;5069856;28;20080;-71
2022/04/17 04:33:33;;;;;;;13.98;9.93;;;3.60;99.90;;;;;;5048418;28;20048;-72
2022/04/17 04:35:59;;;;;;;11.63;8.63;;;3.70;99.90;;;;;;5048847;28;20057;-71
2022/04/17 04:38:25;;;;;;;12.98;8.82;;;3.70;99.90;;;;;;5068361;22;20050;-72
2022/04/17 04:40:54;;;;;;;12.10;8.93;;;3.70;99.90;;;;;;5007532;28;20045;-72
2022/04/17 04:43:20;;;;;;;13.57;9.07;;;3.70;99.90;;;;;;5007182;28;20065;-72
2022/04/17 04:51:14;;;;;;;11.68;8.95;;;3.70;99.90;;;;;;4983642;28;20137;-72
2022/04/17 04:53:40;;;;;;;12.60;9.23;;;3.70;99.90;;;;;;4998758;28;20121;-72
2022/04/17 04:56:06;;;;;;;14.02;9.32;;;3.70;99.90;;;;;;4984354;28;20042;-72
2022/04/17 04:58:32;;;;;;;13.43;9.10;;;3.70;99.90;;;;;;4983334;28;20052;-72
2022/04/17 05:00:58;;;;;;;10.82;9.00;;;3.70;99.90;;;;;;4984237;28;20047;-72
2022/04/17 05:03:25;;;;;;;12.18;9.75;;;3.70;99.90;;;;;;4980914;28;20408;-72
2022/04/17 05:05:51;;;;;;;11.43;8.68;;;3.70;99.90;;;;;;4985463;28;20030;-72
2022/04/17 05:08:18;;;;;;;11.38;8.73;;;3.70;99.90;;;;;;4982484;28;20173;-72
2022/04/17 05:10:45;;;;;;;11.57;8.73;;;3.60;99.90;;;;;;4980847;28;20053;-72
2022/04/17 05:13:10;;;;;;;15.38;9.75;;;3.70;99.90;;;;;;4984132;28;20069;-72
2022/04/17 05:15:36;;;;;;;13.68;9.27;;;3.70;99.90;;;;;;4983797;28;20069;-72
2022/04/17 05:18:02;;;;;;;13.55;9.30;;;3.70;99.90;;;;;;4984772;28;20042;-72
2022/04/17 05:20:28;;;;;;;14.32;9.40;;;3.70;99.90;;;;;;4984317;28;20054;-72
2022/04/17 05:23:03;;;;;;;12.35;9.20;;;3.80;99.90;;;;;;4979533;28;20053;-72
2022/04/17 05:25:29;;;;;;;11.60;8.93;;;3.80;99.90;;;;;;4985320;28;20046;-72
2022/04/17 05:27:55;;;;;;;10.55;8.95;;;3.90;99.90;;;;;;4998322;28;20042;-72
2022/04/17 05:30:21;;;;;;;11.23;8.85;;;3.90;99.90;;;;;;4981076;28;20049;-72
2022/04/17 05:32:47;;;;;;;15.50;8.68;;;3.90;99.90;;;;;;4980021;28;20052;-72
2022/04/17 05:35:12;;;;;;;12.52;9.20;;;4.00;99.90;;;;;;4983439;28;21010;-72
2022/04/17 05:37:38;;;;;;;11.25;8.73;;;4.00;99.90;;;;;;4991868;28;20048;-72
2022/04/17 05:40:04;;;;;;;11.35;8.70;;;4.10;99.90;;;;;;4982466;28;20053;-72
2022/04/17 05:42:30;;;;;;;12.40;9.00;;;4.10;99.90;;;;;;5001229;28;20044;-73
2022/04/17 05:44:56;;;;;;;10.15;8.60;;;4.10;99.90;;;;;;4981785;28;20130;-72
2022/04/17 05:47:22;;;;;;;12.05;9.57;;;4.20;99.90;;;;;;4999512;28;20073;-72
2022/04/17 05:49:48;;;;;;;11.63;9.15;;;4.20;99.90;;;;;;5003017;28;20428;-72
2022/04/17 05:52:13;;;;;;;13.65;9.27;;;4.30;99.90;;;;;;4981438;28;20097;-72
2022/04/17 05:54:43;;;;;;;12.05;9.20;;;4.30;99.90;;;;;;5004336;28;20120;-72
2022/04/17 05:57:10;;;;;;;12.10;9.80;;;4.40;99.90;;;;;;4987588;28;20045;-72
2022/04/17 05:59:39;;;;;;;12.70;9.52;;;4.40;99.90;;;;;;5002059;28;20050;-72
2022/04/17 06:02:04;;;;;;;12.80;9.23;;;4.50;99.90;;;;;;4983133;28;20124;-72
2022/04/17 06:04:30;;;;;;;12.63;9.40;;;4.50;99.90;;;;;;4980415;28;20532;-72
2022/04/17 06:06:55;;;;;;;11.23;8.63;;;4.60;99.90;;;;;;4982390;28;20040;-72
2022/04/17 06:09:21;;;;;;;14.50;9.82;;;4.70;99.90;;;;;;4985383;28;20169;-72
2022/04/17 06:11:47;;;;;;;13.23;9.13;;;4.70;99.90;;;;;;4980294;28;20046;-72
2022/04/17 06:14:12;;;;;;;13.05;9.27;;;4.80;99.90;;;;;;4981387;28;20050;-72
2022/04/17 06:16:39;;;;;;;11.43;8.65;;;4.80;99.90;;;;;;4999705;28;20123;-72
2022/04/17 06:19:05;;;;;;;13.45;9.27;;;4.90;99.90;;;;;;5001125;28;20046;-72
2022/04/17 06:21:31;;;;;;;12.82;9.20;;;5.00;99.90;;;;;;4997917;28;20575;-72
2022/04/17 06:23:57;;;;;;;12.60;8.95;;;5.00;99.90;;;;;;4983599;28;20048;-72
2022/04/17 06:26:22;;;;;;;12.10;9.27;;;5.10;99.90;;;;;;4989665;28;20042;-72
2022/04/17 06:28:48;;;;;;;12.02;8.73;;;5.20;99.90;;;;;;4982908;28;20070;-72
2022/04/17 06:31:14;;;;;;;13.25;9.77;;;5.30;99.90;;;;;;4984539;28;20054;-72
2022/04/17 06:33:39;;;;;;;12.07;9.23;;;5.50;99.90;;;;;;4981624;28;20043;-72
2022/04/17 06:36:05;;;;;;;12.80;9.07;;;5.60;99.90;;;;;;4982796;28;20403;-72
2022/04/17 06:38:31;;;;;;;11.57;9.52;;;5.70;99.90;;;;;;4999716;28;20564;-72
2022/04/17 06:40:57;;;;;;;11.68;9.00;;;5.80;99.90;;;;;;5019648;28;20124;-72
2022/04/17 06:43:23;;;;;;;13.13;8.95;;;5.90;99.90;;;;;;5001561;28;20038;-73
2022/04/17 06:45:49;;;;;;;11.55;8.73;;;6.10;99.90;;;;;;5018655;28;20092;-72
2022/04/17 06:48:22;;;;;;;11.65;8.88;;;6.20;99.90;;;;;;5015980;28;20041;-72
2022/04/17 06:50:48;;;;;;;;;;;6.40;99.90;;;;;;5006338;28;20410;-72
2022/04/17 06:53:14;;;;;;;11.55;8.88;;;6.50;99.90;;;;;;5007044;28;19918;-72
2022/04/17 06:55:40;;;;;;;11.38;9.13;;;6.70;99.90;;;;;;5007418;28;20120;-73
2022/04/17 06:58:07;;;;;;;11.43;8.90;;;6.80;99.90;;;;;;5011293;28;20069;-72
2022/04/17 07:00:34;;;;;;;11.95;8.93;;;7.00;99.90;;;;;;5009024;28;20038;-73
2022/04/17 07:02:59;;;;;;;14.48;7.93;;;7.10;99.90;;;;;;5000330;28;20038;-73
2022/04/17 07:05:25;;;;;;;11.45;7.68;;;7.30;99.90;;;;;;5006257;28;20578;-72
2022/04/17 07:08:05;;;;;;;11.15;8.75;;;7.40;99.90;;;;;;5031438;28;20582;-72
2022/04/17 07:10:33;;;;;;;10.43;8.18;;;7.60;99.90;;;;;;5009421;28;20042;-72
2022/04/17 07:13:00;;;;;;;10.57;7.53;;;7.80;99.90;;;;;;5027668;28;20046;-72
2022/04/17 07:15:25;;;;;;;11.25;8.02;;;7.90;99.90;;;;;;5013136;28;20043;-72
2022/04/17 07:17:53;;;;;;;8.93;7.40;;;8.10;99.90;;;;;;5011932;28;20496;-72
2022/04/17 07:20:19;;;;;;;10.70;7.03;;;8.20;99.90;;;;;;5005222;28;20145;-72
2022/04/17 07:22:45;;;;;;;9.38;7.43;;;8.40;99.90;;;;;;5031716;28;20116;-72
2022/04/17 07:25:12;;;;;;;9.48;7.70;;;8.60;99.90;;;;;;5030382;28;20042;-72
2022/04/17 07:27:43;;;;;;;11.55;7.55;;;8.80;99.90;;;;;;5003656;28;20042;-72
2022/04/17 07:30:10;;;;;;;9.77;6.93;;;8.90;99.90;;;;;;5005973;28;20037;-73
2022/04/17 07:32:36;;;;;;;8.48;7.05;;;9.10;99.90;;;;;;4987487;28;20077;-73
2022/04/17 07:35:02;;;;;;;7.32;6.47;;;9.30;99.90;;;;;;5003901;28;20121;-72
2022/04/17 07:37:31;;;;;;;8.35;6.43;;;9.40;99.90;;;;;;5008880;28;20050;-72
2022/04/17 07:39:56;;;;;;;9.90;6.45;;;9.50;99.90;;;;;;5006473;28;20045;-72
2022/04/17 07:42:22;;;;;;;8.00;6.55;;;9.70;99.90;;;;;;4992375;28;20050;-72
2022/04/17 07:44:48;;;;;;;8.55;6.28;;;9.80;99.90;;;;;;5002062;28;20439;-72
2022/04/17 07:47:15;;;;;;;8.55;6.10;;;10.00;99.90;;;;;;5003293;28;20040;-72
2022/04/17 07:49:41;;;;;;;8.95;6.30;;;10.10;99.90;;;;;;5020897;28;20100;-72
2022/04/17 07:52:07;;;;;;;8.25;6.65;;;10.20;97.90;;;;;;5022718;28;20458;-72
2022/04/17 07:54:33;;;;;;;7.50;5.97;;;10.30;97.00;;;;;;5005601;28;20041;-72
2022/04/17 07:56:58;;;;;;;8.80;5.85;;;10.50;97.30;;;;;;5006033;28;20727;-72
2022/04/17 07:59:25;;;;;;;7.40;6.57;;;10.60;95.30;;;;;;5006057;28;20045;-72
2022/04/17 08:01:51;;;;;;;9.00;5.90;;;10.70;93.70;;;;;;5005624;28;20046;-72
2022/04/17 08:04:17;;;;;;;8.90;6.40;;;10.90;92.60;;;;;;5006463;28;20133;-72
2022/04/17 08:06:42;;;;;;;8.68;6.93;;;11.00;93.70;;;;;;5002385;28;20512;-73
2022/04/17 08:09:08;;;;;;;8.18;5.80;;;11.10;92.20;;;;;;5002463;28;20471;-73
2022/04/17 08:11:34;;;;;;;7.53;5.90;;;11.20;91.30;;;;;;5007339;28;20074;-73
2022/04/17 08:13:59;;;;;;;7.25;5.85;;;11.30;88.70;;;;;;5000863;28;20125;-73
2022/04/17 08:16:25;;;;;;;7.70;5.63;;;11.40;89.20;;;;;;5000206;28;20060;-73
2022/04/17 08:18:51;;;;;;;7.93;5.43;;;11.50;87.00;;;;;;5019272;28;20125;-73
2022/04/17 08:21:16;;;;;;;7.53;5.18;;;11.70;86.40;;;;;;5002569;28;20042;-73
2022/04/17 08:23:42;;;;;;;7.40;4.97;;;11.80;83.60;;;;;;5012881;28;20385;-73
2022/04/17 08:26:08;;;;;;;8.05;5.50;;;11.90;77.10;;;;;;5024733;28;20038;-73
2022/04/17 08:28:34;;;;;;;7.38;4.78;;;12.10;76.70;;;;;;4987400;28;20400;-73
2022/04/17 08:31:00;;;;;;;12.85;5.50;;;12.20;71.70;;;;;;5005614;28;20082;-72
2022/04/17 08:33:26;;;;;;;7.57;4.82;;;12.30;72.20;;;;;;5009079;28;20886;-72
2022/04/17 08:35:57;;;;;;;8.85;5.68;;;12.40;71.40;;;;;;4989849;28;20042;-72
2022/04/17 08:38:23;;;;;;;7.57;4.82;;;12.50;72.50;;;;;;5021316;28;20050;-72
2022/04/17 08:40:50;;;;;;;9.68;5.13;;;12.60;70.90;;;;;;5004061;28;20037;-73
2022/04/17 08:43:21;;;;;;;6.00;5.30;;;12.70;71.50;;;;;;5005516;28;20048;-73
2022/04/17 08:45:50;;;;;;;8.15;5.60;;;12.80;73.60;;;;;;5004034;28;20046;-73
2022/04/17 08:48:16;;;;;;;7.38;5.40;;;12.90;72.20;;;;;;5005746;28;20050;-73
2022/04/17 08:50:42;;;;;;;6.47;5.20;;;13.00;70.70;;;;;;5021431;28;20046;-73
2022/04/17 08:53:09;;;;;;;8.02;5.82;;;13.00;68.90;;;;;;5022457;28;20484;-73
2022/04/17 08:55:35;;;;;;;6.15;5.45;;;13.20;70.30;;;;;;5023770;28;20429;-73
2022/04/17 08:58:01;;;;;;;8.15;5.47;;;13.30;69.90;;;;;;5019027;28;20064;-73
2022/04/17 09:00:26;;;;;;;8.20;5.75;;;13.40;67.90;;;;;;5002037;28;20049;-73
2022/04/17 09:02:52;;;;;;;9.55;5.68;;;13.50;68.40;;;;;;5006045;28;20088;-73
2022/04/17 09:05:20;;;;;;;7.97;5.45;;;13.60;64.30;;;;;;5009691;28;20061;-73
2022/04/17 09:07:49;;;;;;;7.60;5.32;;;13.60;66.00;;;;;;5002211;28;20042;-73
2022/04/17 09:10:31;;;;;;;7.20;5.07;;;13.80;65.80;;;;;;5007180;28;20042;-73
2022/04/17 09:12:59;;;;;;;9.88;5.38;;;13.90;66.20;;;;;;5001311;28;20052;-73
2022/04/17 09:15:28;;;;;;;6.78;5.70;;;14.00;64.60;;;;;;5003853;28;20050;-73
2022/04/17 09:17:54;;;;;;;7.53;5.40;;;14.10;64.60;;;;;;5003993;28;20034;-73
2022/04/17 09:20:24;;;;;;;5.95;4.80;;;14.30;65.20;;;;;;5022250;28;20045;-73
2022/04/17 09:22:52;;;;;;;9.23;5.47;;;14.50;62.70;;;;;;5000117;28;20052;-73
2022/04/17 09:25:18;;;;;;;8.05;5.43;;;14.60;63.80;;;;;;5003987;28;20083;-73
2022/04/17 09:28:03;;;;;;;6.13;4.57;;;14.80;61.70;;;;;;5000484;28;20042;-73
2022/04/17 09:30:29;;;;;;;6.88;5.53;;;15.00;60.40;;;;;;5004051;28;20033;-73
2022/04/17 09:32:56;;;;;;;6.82;5.30;;;15.10;59.60;;;;;;5002408;28;20080;-73
2022/04/17 09:35:26;;;;;;;7.40;5.13;;;15.10;58.30;;;;;;5000318;28;20041;-73
2022/04/17 09:37:57;;;;;;;6.47;5.18;;;15.30;58.60;;;;;;5004233;28;20041;-74
2022/04/17 09:40:23;;;;;;;12.02;5.18;;;15.40;59.70;;;;;;4988522;28;20181;-76
2022/04/17 09:42:49;;;;;;;5.05;4.25;;;15.30;58.70;;;;;;5018942;28;20125;-75
2022/04/17 09:45:15;;;;;;;5.65;4.68;;;15.40;57.60;;;;;;4998513;28;20041;-77
2022/04/17 09:47:54;;;;;;;7.60;5.13;;;15.50;58.80;;;;;;4987309;28;20041;-77
2022/04/17 09:50:30;;;;;;;10.32;5.22;;;15.50;58.60;;;;;;4989885;28;20079;-78
2022/04/17 09:52:56;;;;;;;10.48;5.35;;;15.50;58.00;;;;;;4990688;28;20046;-79
2022/04/17 09:55:28;;;;;;;13.60;6.05;;;15.60;57.90;;;;;;4976947;28;20041;-78
2022/04/17 09:57:58;;;;;;;23.05;6.95;;;15.60;57.50;;;;;;5004369;28;20048;-76
2022/04/17 10:00:25;;;;;;;8.65;5.40;;;15.70;56.40;;;;;;5020044;28;20072;-78
2022/04/17 10:02:51;;;;;;;7.43;5.00;;;15.80;56.80;;;;;;5019284;28;20056;-80
2022/04/17 10:05:18;;;;;;;7.10;4.88;;;15.90;55.80;;;;;;5021769;28;20050;-78
2022/04/17 10:07:46;;;;;;;6.75;4.53;;;16.00;55.60;;;;;;5024957;28;20037;-79
2022/04/17 10:10:13;;;;;;;5.50;4.85;;;16.20;55.60;;;;;;5006164;28;20106;-79
2022/04/17 10:12:40;;;;;;;6.13;5.22;;;16.20;58.00;;;;;;5004352;28;20038;-79
2022/04/17 10:15:07;;;;;;;5.38;4.22;;;16.30;57.30;;;;;;4987918;28;20026;-80
2022/04/17 10:17:34;;;;;;;6.07;4.70;;;16.40;56.40;;;;;;5015684;28;20037;-79
2022/04/17 10:20:06;;;;;;;7.75;4.80;;;16.60;54.70;;;;;;5016854;28;20042;-79
2022/04/17 10:22:34;;;;;;;8.30;3.97;;;16.80;53.40;;;;;;4987633;28;20132;-79
2022/04/17 10:25:02;;;;;;;6.50;3.95;;;16.80;51.90;;;;;;4968783;28;20085;-79
2022/04/17 10:27:36;;;;;;;5.68;4.38;;;17.00;51.30;;;;;;4987122;28;20033;-79
2022/04/17 10:30:06;;;;;;;6.40;3.95;;;17.10;49.70;;;;;;4987579;28;20042;-79
2022/04/17 10:33:00;;;;;;;6.38;4.40;;;17.20;49.90;;;;;;4988591;28;20042;-79
2022/04/17 10:35:35;;;;;;;5.30;3.85;;;17.40;50.10;;;;;;4987115;28;20091;-80
2022/04/17 10:38:23;;;;;;;4.25;3.83;;;17.50;50.80;;;;;;4989304;28;20060;-80
2022/04/17 10:40:59;;;;;;;5.82;4.00;;;17.70;48.30;;;;;;5018628;22;20045;-79
2022/04/17 10:43:33;;;;;;;6.90;4.30;;;17.60;47.30;;;;;;5023453;28;20037;-78
2022/04/17 10:46:18;;;;;;;5.53;4.20;;;17.70;48.80;;;;;;5004812;28;20041;-78
2022/04/17 10:48:54;;;;;;;10.40;4.07;;;17.90;49.30;;;;;;5010314;28;20030;-78
2022/04/17 10:51:31;;;;;;;5.38;3.80;;;18.10;46.20;;;;;;5039824;28;20029;-78
2022/04/17 10:54:11;;;;;;;5.10;3.85;;;18.20;46.70;;;;;;5044364;28;20079;-77
2022/04/17 10:56:56;;;;;;;5.53;4.13;;;18.40;48.50;;;;;;5052009;28;20124;-77
2022/04/17 10:59:26;;;;;;;6.63;4.10;;;18.60;48.40;;;;;;5049288;28;20045;-76
2022/04/17 11:01:59;;;;;;;3.65;3.28;;;18.80;49.00;;;;;;5044472;28;20064;-75
2022/04/17 11:04:26;;;;;;;7.07;3.83;;;18.90;47.80;;;;;;5044705;28;20041;-78
2022/04/17 11:07:04;;;;;;;5.38;3.67;;;19.10;46.00;;;;;;5046847;28;20028;-77
2022/04/17 11:09:33;;;;;;;7.25;4.57;;;19.10;43.30;;;;;;5063041;28;20048;-78
2022/04/17 11:12:17;;;;;;;5.13;4.00;;;18.90;44.50;;;;;;5045453;28;20051;-78
2022/04/17 11:15:01;;;;;;;4.32;3.60;;;19.00;43.10;;;;;;5046483;28;20052;-77
2022/04/17 11:17:32;;;;;;;5.00;3.60;;;19.00;45.00;;;;;;5047462;28;20037;-78
2022/04/17 11:19:59;;;;;;;5.95;3.97;;;19.00;46.70;;;;;;5048631;28;20073;-78
2022/04/17 11:22:27;;;;;;;4.40;3.47;;;19.10;43.20;;;;;;5044894;28;20073;-76
2022/04/17 11:24:57;;;;;;;4.20;3.40;;;19.30;44.80;;;;;;5044339;28;20090;-79
2022/04/17 11:27:31;;;;;;;4.00;3.40;;;19.50;42.70;;;;;;5041608;28;20036;-77
2022/04/17 11:30:01;;;;;;;5.95;3.65;;;19.50;44.70;;;;;;5029000;28;20041;-79
2022/04/17 11:32:29;;;;;;;4.55;3.60;;;19.50;43.40;;;;;;5046859;28;20394;-78
2022/04/17 11:35:02;;;;;;;7.72;3.53;;;19.50;42.90;;;;;;5045653;28;20402;-79
2022/04/17 11:37:29;;;;;;;5.85;3.42;;;19.50;41.80;;;;;;5047683;28;20095;-79
2022/04/17 11:40:00;;;;;;;4.88;3.20;;;19.80;40.70;;;;;;5048379;28;20438;-78
2022/04/17 11:42:28;;;;;;;4.25;3.00;;;20.00;42.70;;;;;;5054997;28;20440;-78
2022/04/17 11:44:59;;;;;;;4.55;2.70;;;20.10;42.20;;;;;;5051853;28;20453;-78
2022/04/17 11:47:25;;;;;;;5.30;2.90;;;20.10;41.00;;;;;;5044673;28;20428;-78
2022/04/17 11:49:50;;;;;;;5.65;3.13;;;20.30;41.40;;;;;;5050821;28;20128;-79
2022/04/17 11:52:21;;;;;;;4.63;3.28;;;20.40;41.20;;;;;;5053577;28;20123;-79
2022/04/17 11:54:48;;;;;;;4.95;2.80;;;20.40;42.10;;;;;;5054070;28;20090;-78
2022/04/17 11:57:14;;;;;;;3.90;2.83;;;20.50;39.80;;;;;;5055451;28;20437;-79
2022/04/17 11:59:51;;;;;;;3.28;2.90;;;20.60;39.20;;;;;;5053764;28;20040;-79
2022/04/17 12:02:28;;;;;;;3.85;2.85;;;20.80;37.50;;;;;;5055230;28;20071;-79
2022/04/17 12:04:56;;;;;;;5.72;3.22;;;20.90;39.00;;;;;;5057644;28;20424;-79
2022/04/17 12:07:26;;;;;;;4.30;3.22;;;20.80;37.70;;;;;;5055935;28;20131;-79
2022/04/17 12:10:07;;;;;;;4.22;3.30;;;20.70;39.70;;;;;;5055943;28;20044;-78
2022/04/17 12:12:35;;;;;;;3.97;3.40;;;20.80;42.20;;;;;;5045475;28;20456;-79
2022/04/17 12:15:03;;;;;;;7.07;3.70;;;21.00;41.20;;;;;;5050313;28;20451;-78
2022/04/17 12:17:34;;;;;;;10.82;4.47;;;21.00;40.40;;;;;;5053937;28;20486;-79
2022/04/17 12:20:01;;;;;;;9.73;4.72;;;21.20;40.30;;;;;;5050628;28;20761;-79
2022/04/17 12:22:27;;;;;;;6.97;4.57;;;21.40;39.80;;;;;;5055178;28;20591;-79
2022/04/17 12:24:53;;;;;;;5.95;4.05;;;21.50;38.60;;;;;;5027438;28;20115;-79
2022/04/17 12:27:20;;;;;;;6.25;4.20;;;21.60;39.40;;;;;;5036268;28;20486;-78
2022/04/17 12:29:48;;;;;;;6.25;3.60;;;21.60;39.00;;;;;;5054280;28;20528;-79
2022/04/17 12:32:20;;;;;;;6.93;4.10;;;21.70;38.20;;;;;;5038564;28;20056;-79
2022/04/17 12:34:46;;;;;;;5.53;3.35;;;21.70;37.90;;;;;;5050270;28;20036;-79
2022/04/17 12:37:24;;;;;;;5.63;3.80;;;21.90;39.80;;;;;;5039907;28;20127;-79
2022/04/17 12:39:50;;;;;;;4.97;3.95;;;22.00;37.40;;;;;;5050704;28;20513;-79
2022/04/17 12:42:17;;;;;;;6.75;3.67;;;22.00;39.20;;;;;;5055158;28;20151;-79
2022/04/17 12:44:44;;;;;;;5.97;3.97;;;22.10;39.20;;;;;;5046532;28;20532;-79
2022/04/17 12:47:19;;;;;;;4.75;3.63;;;22.00;38.20;;;;;;5047810;28;20493;-79
2022/04/17 12:49:44;;;;;;;6.47;4.10;;;22.10;35.30;;;;;;5053610;28;20502;-79
2022/04/17 12:52:21;;;;;;;5.57;3.58;;;22.30;37.30;;;;;;5046045;28;20047;-79
2022/04/17 12:54:47;;;;;;;4.18;3.63;;;22.40;38.10;;;;;;5046772;28;20032;-79
2022/04/17 12:57:19;;;;;;;7.53;3.72;;;22.50;37.60;;;;;;5056580;28;20106;-79
2022/04/17 12:59:48;;;;;;;7.15;3.60;;;22.70;39.50;;;;;;5053181;28;20036;-79
2022/04/17 13:02:21;;;;;;;4.68;4.20;;;22.90;37.50;;;;;;5047893;28;20527;-79